KNMI Weerbulletins

Hier vind u de KMNI verwachtingen en de waarnemingen

Bron: KNMI website
Laatste update op 14-12-2019 om 13:39
ZCZC
FBNL50 EHDB 141201
WEERBULLETIN VOOR DE LUCHTVAART
.
GELDIG 141200/141800 UTC
.
SITUATIE: EEN LAGEDRUKGEBIED TEN NOORDEN VAN SCHOTLAND HOUDT EEN
STEVIGE WESTELIJKE STROMING IN STAND WAARMEE MARITIEM POLAIRE LUCHT
WORDT AANGEVOERD. DEZE IS ONSTABIEL VAN OPBOUW TOT BOVEN FL100. EEN
OCCLUSIE BOVEN HET ZUIDWESTEN BEWEEGT OOSTWAARTS EN VERLAAT HET
OOSTEN IN DE TWEEDE HELFT VAN DE PERIODE.
.
SIGNIFICANT WEER: ENKELE GEISOLEERDE LICHTE TOT MATIGE REGENBUIEN,
MOGELIJK MET ONWEER EN KORRELHAGEL. IN DE KUSTGEBIEDEN EN LOKAAL OOK
VERDER LANDINWAARTS KANS OP MATIGE TURBULENTIE. BIJ DE OCCLUSIE
PERIODEN MET LICHTE/MATIGE REGEN EN/OF ENKELE (VERSCHOLEN) LICHTE TOT
MATIGE REGENBUIEN EN IN BEWOLKING BOVEN 3000 VT KANS OP MATIGE
IJSAANZETTING. ACHTER DE OCCLUSIE ENKELE GEISOLEERDE LICHTE TOT
MATIGE BUIEN MOGELIJK MET ONWEER.
.
WIND: WEST- TOT ZUIDWEST 13-18 KN, IN DE KUSTPROVINCIES 19-25 KN, AAN
DE WESTKUST, IN HET NOORDELIJK KUSTGEBIED EN BOVEN HET IJSSELMEER
28-35 KN. UITSCHIETERS 10 TOT 15 KN BOVEN DE GEMIDDELDE WIND.
.
BEWOLKING: SCT/BKN SC/CU 2500-3000 VT, TOPPEN 6000 VT. IN EEN BUI
FEW/SCT CB 2000 VT, TOPPEN BOVEN FL100. NABIJ DE OCCLUSIE BKN SC
1500-2000 VT, IN NEERSLAG LOKAAL 1000-1500 VT, TOPPEN 6000-7000 VT EN
BIJ EEN (VERSCHOLEN) BUI FEW/SCT CB 2000 VT, TOPPEN BOVEN FL100.
ACHTER DE OCCLUSIE FEW/SCT CU 2000 VT, TOPPEN 5000 VT.
.
ZICHT: MEER DAN 10 KM, IN NEERSLAG 5-8 KM, IN EEN ZWAARDERE BUI 3-5
KM, LOKAAL 1500-3000 M.
.
NULGRADEN NIVEAU: ROND 3000 VT.
.
HOOGTEWINDEN EN TEMPERATUREN:
       12 UTC:       18 UTC:
0500VT 250/25-40 +07 250/30-35 +06
1500VT 260/30-40 +04 260/30-40 +03
3000VT 260/40-50 -00 270/45-50 -00
FL 050 270/45-50 -04 270/40-55 -04
FL 100 280/40-55 -14 290/40-70 -12
IN ONDERSTE 3000 VT AANVANKELIJK DE HOOGSTE WINDSNELHEID IN HET
NOORDEN. OP FL100 HOOGSTE WINDSNELHEID IN HET ZUIDEN.
.
.
THERMIEK: -
.
MAX. TEMPERATUUR: ROND 7 GRADEN CELSIUS.
.
VOORUITZICHTEN VOOR DE PERIODE VAN 141800/150000: EEN ZWAKKE RUG VAN
HOGE DRUK BEWEEGT IN DE PERIODE VANUIT HET ZUIDWESTEN OVER HET LAND
NAAR HET OOSTEN. DE BUIIGHEID WORDT DAARDOOR TIJDELIJK WAT
ONDERDRUKT.
.
DAGLICHTPERIODE: 07.25 TOT 15.43 UTC.=
NNNN
Bron: KNMI website
Laatste update op 14-12-2019 om 13:39
ZCZC
FC130900 EHGR RRC GILZE-RIJEN/GILZE-RIJEN   NLD   14 m.
TAF EHGR 130908Z 1310/1322 VRB02KT 9999 BKN008
    TEMPO 1310/1314 1500 DZ SCT001 BKN002
    BECMG 1312/1314 25012KT
    TEMPO 1314/1316 3000 DZRA SCT003 BKN004
    BECMG 1315/1317 SCT018 BKN025=
ZCZC
FC131300 EHWO AAA WOENSDRECHT/WOENSDRECHT   NLD   19 m.
TAF AMD EHWO 131505Z 1315/1322 CNL=
ZCZC
FC140900 EHKD RRC DE KOOY/DE KOOY   NLD   1 m.
TAF EHKD 140933Z 1410/1422 27027G42KT 9999 SCT025 BKN040
    TEMPO 1410/1417 27029G45KT SCT020CB BKN050=
ZCZC
FC140900 EHLW RRB LEEUWARDEN/LEEUWARDEN   NLD   1 m.
TAF EHLW 140931Z 1410/1422 25020G35KT 9999 FEW020 SCT025
    BKN035
    TEMPO 1410/1418 26022G37KT FEW010 SCT018CB BKN020=
ZCZC
FC140900 EHVK RRA VOLKEL/VOLKEL   NLD   21 m.
TAF EHVK 140925Z 1410/1422 25017G32KT 9999 SCT030 BKN040
    TEMPO 1410/1417 FEW012 SCT018CB BKN020
    BECMG 1416/1419 20010KT=
ZCZC
FT141100 EHAM     AMSTERDAM/SCHIPHOL   NLD   -3 m.
TAF EHAM 141121Z 1412/1518 25022G33KT 9999 SCT025
    TEMPO 1412/1417 7000 -SHRA -RA FEW020CB
    PROB40 TEMPO 1414/1417 26025G38KT 4500 SHRAGS RA SCT020CB
    BKN025
    BECMG 1418/1421 21015KT
    BECMG 1502/1505 25023G34KT
    TEMPO 1502/1505 26026G39KT 6000 SHRA RA SCT012 BKN018
    SCT020CB
    BECMG 1508/1511 22017G27KT
    PROB30 TEMPO 1513/1518 23022G32KT 5000 SHRA TSRA SCT015
    SCT020CB=
ZCZC
FT141100 EHBK     MAASTRICHT/MAASTRICHT-AACHEN   NLD   114 m.
TAF EHBK 141123Z 1412/1518 24017G29KT 9999 SCT030
    PROB40 TEMPO 1413/1417 24023G37KT 6000 RA SHRA BKN012
    SCT020CB
    BECMG 1418/1421 21012KT
    BECMG 1503/1506 24017KT
    PROB40 TEMPO 1504/1507 24025G35KT 4000 SHRA RA SCT012CB
    BKN015
    BECMG 1515/1518 21012KT=
ZCZC
FT141100 EHGG     GRONINGEN/EELDE   NLD   5 m.
TAF EHGG 141123Z 1412/1518 25017G30KT 9999 BKN025
    PROB40 TEMPO 1412/1419 26022G36KT 4000 SHRAGS SCT020CB
    BECMG 1416/1419 25015KT
    BECMG 1421/1424 21012KT
    BECMG 1500/1503 18010KT
    BECMG 1503/1506 24017G27KT
    TEMPO 1503/1507 24022G34KT 4000 SHRA RA BKN012 FEW015CB
    PROB40 TEMPO 1514/1518 24020G30KT 5000 SHRA FEW020CB
    BECMG 1515/1518 21016KT=
ZCZC
FT141100 EHLE     LELYSTAD/LELYSTAD   NLD   -3 m.
TAF EHLE 141122Z 1412/1518 26022G33KT 9999 SCT025
    TEMPO 1412/1417 7000 -SHRA FEW020CB
    PROB40 TEMPO 1414/1417 26025G38KT 4500 SHRAGS RA SCT020CB
    BKN025
    BECMG 1418/1421 21015KT
    BECMG 1503/1506 25023G34KT
    TEMPO 1503/1506 26026G39KT 6000 SHRA RA SCT010 BKN014
    SCT020CB
    BECMG 1509/1512 22017G27KT
    PROB30 TEMPO 1514/1518 23022G32KT 5000 SHRA TSRA SCT015
    SCT020CB=
ZCZC
FT141100 EHRD     ROTTERDAM/THE HAGUE AIRPORT   NLD   -5 m.
TAF EHRD 141121Z 1412/1518 26022G32KT 9999 SCT025
    TEMPO 1412/1417 7000 -SHRA FEW020CB
    PROB40 TEMPO 1413/1416 26025G37KT 4500 SHRAGS RA SCT020CB
    BKN025
    BECMG 1418/1421 21015KT
    BECMG 1502/1505 25022G33KT
    TEMPO 1502/1505 26025G38KT 6000 SHRA RA SCT010 BKN014
    SCT020CB
    BECMG 1508/1511 22016G26KT
    PROB30 TEMPO 1512/1518 23021G31KT 5000 SHRA TSRA SCT015
    SCT020CB=
ZCZC
FT141100 EHEH     EINDHOVEN/EINDHOVEN   NLD   22 m.
TAF EHEH 141133Z 1412/1518 24017G32KT 9999 SCT035
    TEMPO 1413/1417 SCT012 BKN015 SCT020CB
    PROB30 TEMPO 1413/1417 25020G37KT 4000 RA SHRAGS SCT008
    BKN012 SCT018CB
    BECMG 1416/1419 20012KT
    TEMPO 1503/1506 24017G35KT SCT012 BKN015 OVC030
    PROB30 TEMPO 1503/1506 15017G40KT 4000 RA SHRAGS SCT008
    SCT015CB BKN020=
Bron: KNMI website
Laatste update op 14-12-2019 om 13:39
ZCZC
SA141155 EHFS     VLISSINGEN AWS   NLD   8 m.
METAR EHFS 141155Z AUTO 22018KT 9999 NSC 08/04 Q0991=
ZCZC
SA141225 EHKD CCA DE KOOY/DE KOOY   NLD   1 m.
METAR COR EHKD 141225Z AUTO 26026KT 230V290 9999 SCT031 SCT042 OVC110
08/02 Q0986
BLU 26026G39KT 9999 SCT025 BKN040 TEMPO 27029G45KT SCT020CB BKN030=
ZCZC
SA141225 EHFD     F3-FB-1   NLD   50 m.
METAR EHFD 141225Z AUTO ///36KT 9999 FEW019/// SCT023/// BKN035///
///// Q0978=
ZCZC
SA141225 EHAM     AMSTERDAM/SCHIPHOL   NLD   -3 m.
METAR EHAM 141225Z 26019KT 9999 FEW028 SCT043 08/02 Q0988 NOSIG=
ZCZC
SA141225 EHVL     VLIELAND   NLD   10 m.
METAR EHVL 141225Z AUTO 26034KT 9999 SCT028 BKN035 BKN042 07/03 Q0985
 BLU=
ZCZC
SA141225 EHJR     K13-A   NLD   37 m.
METAR EHJR 141225Z AUTO 26035KT //// // ///////// 08/01 Q0985 RE//
W10/H38=
ZCZC
SA141225 EHLE     LELYSTAD/LELYSTAD   NLD   -3 m.
METAR EHLE 141225Z AUTO 25019G29KT 9999 // FEW035 07/02 Q0988 RE//
NOSIG=
ZCZC
SA141225 EHLW     LEEUWARDEN/LEEUWARDEN   NLD   1 m.
METAR EHLW 141225Z AUTO 25023KT 220V280 6000 -RA FEW025 SCT028 BKN033
06/03 Q0985 WHT=
ZCZC
SA141225 EHDL     ARNHEM/DEELEN   NLD   48 m.
METAR EHDL 141225Z AUTO 24015KT 190V300 9999 FEW032 OVC100 07/02
Q0989 BLU=
ZCZC
SA141225 EHGG     GRONINGEN/EELDE   NLD   5 m.
METAR EHGG 141225Z AUTO 25015G25KT 210V280 9999 FEW024 BKN027 BKN032
07/03 Q0985 NOSIG=
ZCZC
SA141225 EHSC     LICHTEILAND GOEREE   NLD   22 m.
METAR EHSC 141225Z AUTO 25030KT 9999 ///////// 09/03 Q0989 W08/H28=
ZCZC
SA141225 EHSA     EURO PLATFORM   NLD   19 m.
METAR EHSA 141225Z AUTO 23031KT 9999 -RADZ ///////// 09/02 Q0989
W07/H29=
ZCZC
SA141225 EHWO     WOENSDRECHT/WOENSDRECHT   NLD   19 m.
METAR EHWO 141225Z AUTO 22013G24KT 180V260 9999 -RADZ FEW016CB SCT032
BKN037 07/03 Q0991 BLU=
ZCZC
SA141225 EHRD     ROTTERDAM/THE HAGUE AIRPORT   NLD   -5 m.
METAR EHRD 141225Z AUTO 24014KT 200V280 9999 NSC 08/03 Q0989 TEMPO
26018G28KT 7000 -SHRA FEW025CB=
ZCZC
SA141225 EHGR     GILZE-RIJEN/GILZE-RIJEN   NLD   14 m.
METAR EHGR 141225Z AUTO 22010KT 190V260 9999 BKN061 BKN080 BKN087
08/03 Q0991 BLU=
ZCZC
SA141225 EHEH     EINDHOVEN/EINDHOVEN   NLD   22 m.
METAR EHEH 141225Z AUTO 22017KT 200V260 9999 FEW054 SCT062 OVC095
07/03 Q0992
BLU 25015G28KT 9999 SCT025 BKN040 TEMPO SCT012 SCT018CB BKN020=
ZCZC
SA141225 EHVK     VOLKEL/VOLKEL   NLD   21 m.
METAR EHVK 141225Z AUTO 24015KT 210V270 9999 FEW080 SCT085 BKN091
07/03 Q0991 BLU=
ZCZC
SA141225 EHBK     MAASTRICHT/MAASTRICHT-AACHEN   NLD   114 m.
METAR EHBK 141225Z AUTO 23016KT 200V260 9999 FEW034 07/03 Q0994
NOSIG=
ZCZC
SA141225 EHFZ     F16-A   NLD   43 m.
METAR EHFZ 141225Z AUTO 25031KT 9999 -UP FEW019 SCT023 BKN038 07/03
Q0981=
ZCZC
SA141225 EHKV     K14-FA-1C   NLD   41 m.
METAR EHKV 141225Z AUTO 26040KT 9999 FEW027 08/01 Q0985=
ZCZC
SA141225 EHMG     L9-FF-1   NLD   44 m.
METAR EHMG 141225Z AUTO 25036KT 9999 FEW024 SCT029 BKN036 08/02
Q0984=
ZCZC
SA141225 EHMA     AWG-1   NLD   40 m.
METAR EHMA 141225Z AUTO 26028KT 9999 FEW028 SCT037 06/03 Q0984=
ZCZC
SA141225 EHDV     D15-FA-1   NLD   42 m.
METAR EHDV 141225Z AUTO 27030KT 9999 FEW022/// SCT026/// BKN029///
07/02 Q0980=
ZCZC
SA141225 EHAK     A12-CPP   NLD   48 m.
METAR EHAK 141225Z AUTO 27035KT 9999 -DZ FEW017/// SCT032/// 06/03
Q0977=
ZCZC
SA141225 EHQE     HOORN-A   NLD   50 m.
METAR EHQE 141225Z AUTO 22034KT 9999 FEW028 SCT034 08/02 Q0985=
ZCZC
SA141225 EHJA     J6-A   NLD   45 m.
METAR EHJA 141225Z AUTO 24044KT 9999 FEW022/// BKN026/// BKN032///
07/01 Q0982=
ZCZC
SA141225 EHPG     P11-B   NLD   41 m.
METAR EHPG 141225Z AUTO ///33KT 2500 -RA FEW026 09/04 Q0987=
ZCZC
SA141225 EHHW     BUITENGAATS/BG-OHVS2      42 m.
METAR EHHW 141225Z AUTO 28037KT 9999 FEW002/// SCT023/// 08/03 Q0982=